sensor_id;sensor_type;location;lat;lon;timestamp;temperature;humidity
47414;DHT22;33163;0.000;0.000;2022-09-06T00:00:56;23.40;73.40
47414;DHT22;33163;0.000;0.000;2022-09-06T00:03:23;23.40;73.30
47414;DHT22;33163;0.000;0.000;2022-09-06T00:05:52;23.40;73.30
47414;DHT22;33163;0.000;0.000;2022-09-06T00:08:19;23.40;73.30
47414;DHT22;33163;0.000;0.000;2022-09-06T00:10:54;23.40;73.30
47414;DHT22;33163;0.000;0.000;2022-09-06T00:13:22;23.40;73.30
47414;DHT22;33163;0.000;0.000;2022-09-06T00:15:49;23.40;73.30
47414;DHT22;33163;0.000;0.000;2022-09-06T00:18:16;23.40;73.20
47414;DHT22;33163;0.000;0.000;2022-09-06T00:20:42;23.40;73.20
47414;DHT22;33163;0.000;0.000;2022-09-06T00:23:09;23.40;73.20
47414;DHT22;33163;0.000;0.000;2022-09-06T00:25:36;23.40;73.60
47414;DHT22;33163;0.000;0.000;2022-09-06T00:28:04;23.40;73.20
47414;DHT22;33163;0.000;0.000;2022-09-06T00:30:32;23.40;73.20
47414;DHT22;33163;0.000;0.000;2022-09-06T00:32:59;23.40;73.20
47414;DHT22;33163;0.000;0.000;2022-09-06T00:35:27;23.40;73.10
47414;DHT22;33163;0.000;0.000;2022-09-06T00:37:58;23.40;73.10
47414;DHT22;33163;0.000;0.000;2022-09-06T00:40:26;23.40;73.10
47414;DHT22;33163;0.000;0.000;2022-09-06T00:42:55;23.40;73.10
47414;DHT22;33163;0.000;0.000;2022-09-06T00:45:24;23.40;73.00
47414;DHT22;33163;0.000;0.000;2022-09-06T00:47:52;23.40;73.00
47414;DHT22;33163;0.000;0.000;2022-09-06T00:50:20;23.40;73.00
47414;DHT22;33163;0.000;0.000;2022-09-06T00:52:50;23.40;73.60
47414;DHT22;33163;0.000;0.000;2022-09-06T00:55:18;23.40;72.90
47414;DHT22;33163;0.000;0.000;2022-09-06T00:57:46;23.40;72.90
47414;DHT22;33163;0.000;0.000;2022-09-06T01:00:16;23.40;72.80
47414;DHT22;33163;0.000;0.000;2022-09-06T01:02:47;23.40;72.80
47414;DHT22;33163;0.000;0.000;2022-09-06T01:05:14;23.40;72.70
47414;DHT22;33163;0.000;0.000;2022-09-06T01:07:56;23.40;73.50
47414;DHT22;33163;0.000;0.000;2022-09-06T01:10:46;23.40;72.70
47414;DHT22;33163;0.000;0.000;2022-09-06T01:13:27;23.40;72.70
47414;DHT22;33163;0.000;0.000;2022-09-06T01:16:08;23.40;72.70
47414;DHT22;33163;0.000;0.000;2022-09-06T01:18:58;23.40;72.70
47414;DHT22;33163;0.000;0.000;2022-09-06T01:21:40;23.40;72.70
47414;DHT22;33163;0.000;0.000;2022-09-06T01:24:41;23.40;72.60
47414;DHT22;33163;0.000;0.000;2022-09-06T01:27:33;23.30;72.50
47414;DHT22;33163;0.000;0.000;2022-09-06T01:30:07;23.40;72.50
47414;DHT22;33163;0.000;0.000;2022-09-06T01:32:40;23.40;72.40
47414;DHT22;33163;0.000;0.000;2022-09-06T01:35:17;23.40;72.40
47414;DHT22;33163;0.000;0.000;2022-09-06T01:37:47;23.40;72.40
47414;DHT22;33163;0.000;0.000;2022-09-06T01:40:14;23.30;72.30
47414;DHT22;33163;0.000;0.000;2022-09-06T01:42:44;23.40;72.40
47414;DHT22;33163;0.000;0.000;2022-09-06T01:45:14;23.30;72.30
47414;DHT22;33163;0.000;0.000;2022-09-06T01:47:50;23.30;72.20
47414;DHT22;33163;0.000;0.000;2022-09-06T01:50:40;23.30;72.30
47414;DHT22;33163;0.000;0.000;2022-09-06T01:53:23;23.40;72.30
47414;DHT22;33163;0.000;0.000;2022-09-06T01:55:59;23.30;72.30
47414;DHT22;33163;0.000;0.000;2022-09-06T01:58:42;23.40;72.40
47414;DHT22;33163;0.000;0.000;2022-09-06T02:01:16;23.30;72.20
47414;DHT22;33163;0.000;0.000;2022-09-06T02:03:52;23.30;72.20
47414;DHT22;33163;0.000;0.000;2022-09-06T02:06:24;23.30;72.20
47414;DHT22;33163;0.000;0.000;2022-09-06T02:08:56;23.30;72.30
47414;DHT22;33163;0.000;0.000;2022-09-06T02:11:24;23.40;72.30
47414;DHT22;33163;0.000;0.000;2022-09-06T02:13:57;23.30;72.60
47414;DHT22;33163;0.000;0.000;2022-09-06T02:16:29;23.40;72.30
47414;DHT22;33163;0.000;0.000;2022-09-06T02:19:01;23.30;72.20
47414;DHT22;33163;0.000;0.000;2022-09-06T02:21:34;23.30;72.20
47414;DHT22;33163;0.000;0.000;2022-09-06T02:24:06;23.40;72.20
47414;DHT22;33163;0.000;0.000;2022-09-06T02:26:36;23.30;72.20
47414;DHT22;33163;0.000;0.000;2022-09-06T02:29:07;23.30;72.20
47414;DHT22;33163;0.000;0.000;2022-09-06T02:31:37;23.30;72.20
47414;DHT22;33163;0.000;0.000;2022-09-06T02:34:04;23.30;72.20
47414;DHT22;33163;0.000;0.000;2022-09-06T02:36:34;23.30;72.20
47414;DHT22;33163;0.000;0.000;2022-09-06T02:39:02;23.30;72.20
47414;DHT22;33163;0.000;0.000;2022-09-06T02:41:30;23.30;72.20
47414;DHT22;33163;0.000;0.000;2022-09-06T02:43:57;23.30;72.20
47414;DHT22;33163;0.000;0.000;2022-09-06T02:46:25;23.30;72.20
47414;DHT22;33163;0.000;0.000;2022-09-06T02:48:52;23.30;72.20
47414;DHT22;33163;0.000;0.000;2022-09-06T02:51:19;23.30;72.10
47414;DHT22;33163;0.000;0.000;2022-09-06T02:53:46;23.30;72.10
47414;DHT22;33163;0.000;0.000;2022-09-06T02:56:13;23.30;72.20
47414;DHT22;33163;0.000;0.000;2022-09-06T02:58:40;23.30;72.20
47414;DHT22;33163;0.000;0.000;2022-09-06T03:01:06;23.30;72.10
47414;DHT22;33163;0.000;0.000;2022-09-06T03:03:35;23.30;72.20
47414;DHT22;33163;0.000;0.000;2022-09-06T03:06:02;23.30;72.20
47414;DHT22;33163;0.000;0.000;2022-09-06T03:08:29;23.30;72.80
47414;DHT22;33163;0.000;0.000;2022-09-06T03:10:59;23.30;72.20
47414;DHT22;33163;0.000;0.000;2022-09-06T03:13:26;23.30;72.50
47414;DHT22;33163;0.000;0.000;2022-09-06T03:15:55;23.30;72.20
47414;DHT22;33163;0.000;0.000;2022-09-06T03:18:22;23.30;72.20
47414;DHT22;33163;0.000;0.000;2022-09-06T03:20:51;23.20;72.20
47414;DHT22;33163;0.000;0.000;2022-09-06T03:23:18;23.30;72.20
47414;DHT22;33163;0.000;0.000;2022-09-06T03:25:46;23.30;72.20
47414;DHT22;33163;0.000;0.000;2022-09-06T03:28:13;23.30;72.20
47414;DHT22;33163;0.000;0.000;2022-09-06T03:30:42;23.30;72.20
47414;DHT22;33163;0.000;0.000;2022-09-06T03:33:09;23.20;72.20
47414;DHT22;33163;0.000;0.000;2022-09-06T03:35:37;23.20;72.20
47414;DHT22;33163;0.000;0.000;2022-09-06T03:38:06;23.20;72.20
47414;DHT22;33163;0.000;0.000;2022-09-06T03:40:32;23.30;72.20
47414;DHT22;33163;0.000;0.000;2022-09-06T03:42:59;23.20;72.10
47414;DHT22;33163;0.000;0.000;2022-09-06T03:45:26;23.30;72.20
47414;DHT22;33163;0.000;0.000;2022-09-06T03:47:53;23.30;72.30
47414;DHT22;33163;0.000;0.000;2022-09-06T03:50:20;23.30;72.20
47414;DHT22;33163;0.000;0.000;2022-09-06T03:52:46;23.20;72.20
47414;DHT22;33163;0.000;0.000;2022-09-06T03:55:15;23.20;72.80
47414;DHT22;33163;0.000;0.000;2022-09-06T03:57:41;23.20;72.20
47414;DHT22;33163;0.000;0.000;2022-09-06T04:00:11;23.20;72.20
47414;DHT22;33163;0.000;0.000;2022-09-06T04:02:38;23.20;72.20
47414;DHT22;33163;0.000;0.000;2022-09-06T04:05:05;23.20;72.20
47414;DHT22;33163;0.000;0.000;2022-09-06T04:07:32;23.20;72.20
47414;DHT22;33163;0.000;0.000;2022-09-06T04:10:00;23.20;72.90
47414;DHT22;33163;0.000;0.000;2022-09-06T04:12:28;23.20;72.30
47414;DHT22;33163;0.000;0.000;2022-09-06T04:14:55;23.20;72.30
47414;DHT22;33163;0.000;0.000;2022-09-06T04:17:22;23.20;72.30
47414;DHT22;33163;0.000;0.000;2022-09-06T04:19:49;23.20;72.30
47414;DHT22;33163;0.000;0.000;2022-09-06T04:22:15;23.20;72.30
47414;DHT22;33163;0.000;0.000;2022-09-06T04:24:42;23.20;72.30
47414;DHT22;33163;0.000;0.000;2022-09-06T04:27:09;23.20;72.30
47414;DHT22;33163;0.000;0.000;2022-09-06T04:29:37;23.20;72.30
47414;DHT22;33163;0.000;0.000;2022-09-06T04:32:04;23.20;72.30
47414;DHT22;33163;0.000;0.000;2022-09-06T04:34:31;23.20;72.30
47414;DHT22;33163;0.000;0.000;2022-09-06T04:36:58;23.20;72.30
47414;DHT22;33163;0.000;0.000;2022-09-06T04:39:25;23.20;72.90
47414;DHT22;33163;0.000;0.000;2022-09-06T04:41:52;23.20;72.30
47414;DHT22;33163;0.000;0.000;2022-09-06T04:44:19;23.20;72.30
47414;DHT22;33163;0.000;0.000;2022-09-06T04:46:47;23.20;72.40
47414;DHT22;33163;0.000;0.000;2022-09-06T04:49:14;23.20;72.30
47414;DHT22;33163;0.000;0.000;2022-09-06T04:51:40;23.20;72.30
47414;DHT22;33163;0.000;0.000;2022-09-06T04:54:07;23.20;72.30
47414;DHT22;33163;0.000;0.000;2022-09-06T04:56:34;23.20;72.40
47414;DHT22;33163;0.000;0.000;2022-09-06T04:59:01;23.20;72.30
47414;DHT22;33163;0.000;0.000;2022-09-06T05:01:28;23.20;72.40
47414;DHT22;33163;0.000;0.000;2022-09-06T05:03:56;23.20;72.40
47414;DHT22;33163;0.000;0.000;2022-09-06T05:06:23;23.20;72.40
47414;DHT22;33163;0.000;0.000;2022-09-06T05:08:50;23.20;72.40
47414;DHT22;33163;0.000;0.000;2022-09-06T05:11:17;23.20;72.50
47414;DHT22;33163;0.000;0.000;2022-09-06T05:13:45;23.20;72.30
47414;DHT22;33163;0.000;0.000;2022-09-06T05:16:12;23.20;72.40
47414;DHT22;33163;0.000;0.000;2022-09-06T05:18:39;23.20;72.40
47414;DHT22;33163;0.000;0.000;2022-09-06T05:21:07;23.20;72.40
47414;DHT22;33163;0.000;0.000;2022-09-06T05:23:34;23.20;72.40
47414;DHT22;33163;0.000;0.000;2022-09-06T05:26:01;23.20;72.40
47414;DHT22;33163;0.000;0.000;2022-09-06T05:28:30;23.20;72.50
47414;DHT22;33163;0.000;0.000;2022-09-06T05:31:05;22.90;72.40
47414;DHT22;33163;0.000;0.000;2022-09-06T05:33:32;22.80;72.70
47414;DHT22;33163;0.000;0.000;2022-09-06T05:35:59;22.60;73.10
47414;DHT22;33163;0.000;0.000;2022-09-06T05:38:27;22.50;73.80
47414;DHT22;33163;0.000;0.000;2022-09-06T05:40:54;22.50;73.80
47414;DHT22;33163;0.000;0.000;2022-09-06T05:43:21;22.40;74.00
47414;DHT22;33163;0.000;0.000;2022-09-06T05:45:48;22.30;74.10
47414;DHT22;33163;0.000;0.000;2022-09-06T05:48:14;22.20;74.70
47414;DHT22;33163;0.000;0.000;2022-09-06T05:50:41;22.20;74.60
47414;DHT22;33163;0.000;0.000;2022-09-06T05:53:08;22.20;74.70
47414;DHT22;33163;0.000;0.000;2022-09-06T05:55:36;22.10;75.10
47414;DHT22;33163;0.000;0.000;2022-09-06T05:58:03;22.10;75.20
47414;DHT22;33163;0.000;0.000;2022-09-06T06:00:30;22.10;75.30
47414;DHT22;33163;0.000;0.000;2022-09-06T06:02:57;22.10;75.40
47414;DHT22;33163;0.000;0.000;2022-09-06T06:05:23;22.10;75.70
47414;DHT22;33163;0.000;0.000;2022-09-06T06:07:50;22.20;75.50
47414;DHT22;33163;0.000;0.000;2022-09-06T06:10:17;22.30;75.30
47414;DHT22;33163;0.000;0.000;2022-09-06T06:12:45;22.30;75.40
47414;DHT22;33163;0.000;0.000;2022-09-06T06:15:12;22.30;74.90
47414;DHT22;33163;0.000;0.000;2022-09-06T06:17:39;22.40;74.60
47414;DHT22;33163;0.000;0.000;2022-09-06T06:20:07;22.50;74.40
47414;DHT22;33163;0.000;0.000;2022-09-06T06:22:34;22.50;74.30
47414;DHT22;33163;0.000;0.000;2022-09-06T06:25:01;22.60;74.10
47414;DHT22;33163;0.000;0.000;2022-09-06T06:27:27;22.70;74.10
47414;DHT22;33163;0.000;0.000;2022-09-06T06:29:56;22.70;74.00
47414;DHT22;33163;0.000;0.000;2022-09-06T06:32:22;22.70;74.10
47414;DHT22;33163;0.000;0.000;2022-09-06T06:34:49;22.70;74.10
47414;DHT22;33163;0.000;0.000;2022-09-06T06:37:16;22.70;74.20
47414;DHT22;33163;0.000;0.000;2022-09-06T06:39:43;22.70;74.20
47414;DHT22;33163;0.000;0.000;2022-09-06T06:42:11;22.80;74.20
47414;DHT22;33163;0.000;0.000;2022-09-06T06:44:38;22.80;74.00
47414;DHT22;33163;0.000;0.000;2022-09-06T06:47:06;22.80;73.90
47414;DHT22;33163;0.000;0.000;2022-09-06T06:49:32;22.80;73.90
47414;DHT22;33163;0.000;0.000;2022-09-06T06:51:59;22.80;73.80
47414;DHT22;33163;0.000;0.000;2022-09-06T06:54:26;22.90;73.70
47414;DHT22;33163;0.000;0.000;2022-09-06T06:56:54;22.90;73.80
47414;DHT22;33163;0.000;0.000;2022-09-06T06:59:21;22.90;73.70
47414;DHT22;33163;0.000;0.000;2022-09-06T07:01:47;22.90;73.60
47414;DHT22;33163;0.000;0.000;2022-09-06T07:04:16;22.90;73.70
47414;DHT22;33163;0.000;0.000;2022-09-06T07:06:48;23.00;73.90
47414;DHT22;33163;0.000;0.000;2022-09-06T07:09:16;23.00;73.60
47414;DHT22;33163;0.000;0.000;2022-09-06T07:11:43;23.00;73.60
47414;DHT22;33163;0.000;0.000;2022-09-06T07:14:10;23.00;73.60
47414;DHT22;33163;0.000;0.000;2022-09-06T07:16:37;23.00;73.60
47414;DHT22;33163;0.000;0.000;2022-09-06T07:19:04;23.00;73.40
47414;DHT22;33163;0.000;0.000;2022-09-06T07:21:32;23.00;73.60
47414;DHT22;33163;0.000;0.000;2022-09-06T07:23:59;23.00;73.60
47414;DHT22;33163;0.000;0.000;2022-09-06T07:26:27;23.10;73.70
47414;DHT22;33163;0.000;0.000;2022-09-06T07:28:55;23.10;73.90
47414;DHT22;33163;0.000;0.000;2022-09-06T07:31:22;23.10;73.80
47414;DHT22;33163;0.000;0.000;2022-09-06T07:33:49;23.10;73.90
47414;DHT22;33163;0.000;0.000;2022-09-06T07:36:16;23.10;73.80
47414;DHT22;33163;0.000;0.000;2022-09-06T07:38:46;23.10;73.70
47414;DHT22;33163;0.000;0.000;2022-09-06T07:41:14;23.10;73.70
47414;DHT22;33163;0.000;0.000;2022-09-06T07:43:42;23.10;73.80
47414;DHT22;33163;0.000;0.000;2022-09-06T07:46:11;23.10;73.80
47414;DHT22;33163;0.000;0.000;2022-09-06T07:48:40;23.10;73.70
47414;DHT22;33163;0.000;0.000;2022-09-06T07:51:09;23.20;73.80
47414;DHT22;33163;0.000;0.000;2022-09-06T07:53:37;23.10;73.70
47414;DHT22;33163;0.000;0.000;2022-09-06T07:56:07;23.20;73.70
47414;DHT22;33163;0.000;0.000;2022-09-06T07:58:35;23.20;73.60
47414;DHT22;33163;0.000;0.000;2022-09-06T08:01:32;23.20;73.60
47414;DHT22;33163;0.000;0.000;2022-09-06T08:04:01;23.20;73.60
47414;DHT22;33163;0.000;0.000;2022-09-06T08:06:29;23.20;73.50
47414;DHT22;33163;0.000;0.000;2022-09-06T08:08:57;23.20;73.50
47414;DHT22;33163;0.000;0.000;2022-09-06T08:11:28;23.20;73.60
47414;DHT22;33163;0.000;0.000;2022-09-06T08:13:56;23.30;73.50
47414;DHT22;33163;0.000;0.000;2022-09-06T08:16:24;23.30;73.60
47414;DHT22;33163;0.000;0.000;2022-09-06T08:18:53;23.30;73.40
47414;DHT22;33163;0.000;0.000;2022-09-06T08:21:21;23.30;73.50
47414;DHT22;33163;0.000;0.000;2022-09-06T08:23:50;23.30;73.60
47414;DHT22;33163;0.000;0.000;2022-09-06T08:26:19;23.30;73.60
47414;DHT22;33163;0.000;0.000;2022-09-06T08:28:52;23.30;74.30
47414;DHT22;33163;0.000;0.000;2022-09-06T08:31:19;23.30;73.60
47414;DHT22;33163;0.000;0.000;2022-09-06T08:33:46;23.40;73.50
47414;DHT22;33163;0.000;0.000;2022-09-06T08:36:13;23.40;73.40
47414;DHT22;33163;0.000;0.000;2022-09-06T08:38:40;23.40;73.30
47414;DHT22;33163;0.000;0.000;2022-09-06T08:41:10;23.40;73.30
47414;DHT22;33163;0.000;0.000;2022-09-06T08:43:38;23.40;73.30
47414;DHT22;33163;0.000;0.000;2022-09-06T08:46:08;23.40;73.20
47414;DHT22;33163;0.000;0.000;2022-09-06T08:48:36;23.40;73.20
47414;DHT22;33163;0.000;0.000;2022-09-06T08:51:27;23.40;73.20
47414;DHT22;33163;0.000;0.000;2022-09-06T08:54:04;23.50;73.10
47414;DHT22;33163;0.000;0.000;2022-09-06T08:56:41;23.50;73.30
47414;DHT22;33163;0.000;0.000;2022-09-06T08:59:12;23.40;73.30
47414;DHT22;33163;0.000;0.000;2022-09-06T09:01:53;23.50;73.30
47414;DHT22;33163;0.000;0.000;2022-09-06T09:04:23;23.50;73.20
47414;DHT22;33163;0.000;0.000;2022-09-06T09:06:54;23.50;73.10
47414;DHT22;33163;0.000;0.000;2022-09-06T09:09:26;23.50;73.00
47414;DHT22;33163;0.000;0.000;2022-09-06T09:11:56;23.50;73.00
47414;DHT22;33163;0.000;0.000;2022-09-06T09:14:28;23.50;73.20
47414;DHT22;33163;0.000;0.000;2022-09-06T09:17:02;23.50;73.10
47414;DHT22;33163;0.000;0.000;2022-09-06T09:19:30;23.50;73.10
47414;DHT22;33163;0.000;0.000;2022-09-06T09:22:01;23.50;72.90
47414;DHT22;33163;0.000;0.000;2022-09-06T09:24:28;23.50;73.00
47414;DHT22;33163;0.000;0.000;2022-09-06T09:26:58;23.50;73.00
47414;DHT22;33163;0.000;0.000;2022-09-06T09:29:31;23.50;73.00
47414;DHT22;33163;0.000;0.000;2022-09-06T09:31:59;23.50;73.00
47414;DHT22;33163;0.000;0.000;2022-09-06T09:34:28;23.50;73.00
47414;DHT22;33163;0.000;0.000;2022-09-06T09:37:11;23.50;73.20
47414;DHT22;33163;0.000;0.000;2022-09-06T09:39:39;23.50;73.30
47414;DHT22;33163;0.000;0.000;2022-09-06T09:42:07;23.50;73.20
47414;DHT22;33163;0.000;0.000;2022-09-06T09:44:35;23.60;73.20
47414;DHT22;33163;0.000;0.000;2022-09-06T09:47:22;23.60;73.00
47414;DHT22;33163;0.000;0.000;2022-09-06T09:49:50;23.60;72.90
47414;DHT22;33163;0.000;0.000;2022-09-06T09:52:23;23.60;73.00
47414;DHT22;33163;0.000;0.000;2022-09-06T09:54:50;23.60;73.50
47414;DHT22;33163;0.000;0.000;2022-09-06T09:57:21;23.60;73.50
47414;DHT22;33163;0.000;0.000;2022-09-06T09:59:51;23.70;72.90
47414;DHT22;33163;0.000;0.000;2022-09-06T10:02:24;23.70;72.80
47414;DHT22;33163;0.000;0.000;2022-09-06T10:04:59;23.70;72.80
47414;DHT22;33163;0.000;0.000;2022-09-06T10:07:26;23.70;72.80
47414;DHT22;33163;0.000;0.000;2022-09-06T10:09:57;23.70;72.80
47414;DHT22;33163;0.000;0.000;2022-09-06T10:12:28;23.70;72.70
47414;DHT22;33163;0.000;0.000;2022-09-06T10:14:55;23.70;72.70
47414;DHT22;33163;0.000;0.000;2022-09-06T10:17:31;23.70;72.70
47414;DHT22;33163;0.000;0.000;2022-09-06T10:20:00;23.80;72.80
47414;DHT22;33163;0.000;0.000;2022-09-06T10:22:35;23.80;72.80
47414;DHT22;33163;0.000;0.000;2022-09-06T10:25:12;23.70;72.70
47414;DHT22;33163;0.000;0.000;2022-09-06T10:27:58;23.70;72.70
47414;DHT22;33163;0.000;0.000;2022-09-06T10:30:33;23.80;72.80
47414;DHT22;33163;0.000;0.000;2022-09-06T10:33:08;23.70;72.80
47414;DHT22;33163;0.000;0.000;2022-09-06T10:35:41;23.70;72.80
47414;DHT22;33163;0.000;0.000;2022-09-06T10:38:16;23.80;73.50
47414;DHT22;33163;0.000;0.000;2022-09-06T10:40:55;23.80;72.80
47414;DHT22;33163;0.000;0.000;2022-09-06T10:43:28;23.80;72.80
47414;DHT22;33163;0.000;0.000;2022-09-06T10:46:00;23.70;72.80
47414;DHT22;33163;0.000;0.000;2022-09-06T10:48:32;23.70;72.90
47414;DHT22;33163;0.000;0.000;2022-09-06T10:51:06;23.80;72.90
47414;DHT22;33163;0.000;0.000;2022-09-06T10:53:44;23.80;72.90
47414;DHT22;33163;0.000;0.000;2022-09-06T10:56:16;23.80;72.80
47414;DHT22;33163;0.000;0.000;2022-09-06T10:58:50;23.80;72.80
47414;DHT22;33163;0.000;0.000;2022-09-06T11:01:26;23.80;72.80
47414;DHT22;33163;0.000;0.000;2022-09-06T11:03:58;23.80;73.00
47414;DHT22;33163;0.000;0.000;2022-09-06T11:06:28;23.80;72.80
47414;DHT22;33163;0.000;0.000;2022-09-06T11:09:03;23.80;72.80
47414;DHT22;33163;0.000;0.000;2022-09-06T11:11:40;23.80;72.80
47414;DHT22;33163;0.000;0.000;2022-09-06T11:14:11;23.90;72.90
47414;DHT22;33163;0.000;0.000;2022-09-06T11:16:42;23.90;72.80
47414;DHT22;33163;0.000;0.000;2022-09-06T11:19:16;23.90;72.90
47414;DHT22;33163;0.000;0.000;2022-09-06T11:22:03;23.80;72.90
47414;DHT22;33163;0.000;0.000;2022-09-06T11:24:43;23.90;72.90
47414;DHT22;33163;0.000;0.000;2022-09-06T11:27:18;23.90;72.90
47414;DHT22;33163;0.000;0.000;2022-09-06T11:29:49;23.90;72.80
47414;DHT22;33163;0.000;0.000;2022-09-06T11:32:31;23.90;72.80
47414;DHT22;33163;0.000;0.000;2022-09-06T11:35:03;23.90;72.80
47414;DHT22;33163;0.000;0.000;2022-09-06T11:37:34;23.90;72.80
47414;DHT22;33163;0.000;0.000;2022-09-06T11:40:08;23.90;73.40
47414;DHT22;33163;0.000;0.000;2022-09-06T11:42:40;23.90;72.80
47414;DHT22;33163;0.000;0.000;2022-09-06T11:45:16;23.90;72.80
47414;DHT22;33163;0.000;0.000;2022-09-06T11:47:47;23.90;72.80
47414;DHT22;33163;0.000;0.000;2022-09-06T11:50:24;23.90;72.80
47414;DHT22;33163;0.000;0.000;2022-09-06T11:53:08;23.90;72.70
47414;DHT22;33163;0.000;0.000;2022-09-06T11:55:41;23.80;72.80
47414;DHT22;33163;0.000;0.000;2022-09-06T11:58:18;23.80;72.80
47414;DHT22;33163;0.000;0.000;2022-09-06T12:04:01;23.80;72.80
47414;DHT22;33163;0.000;0.000;2022-09-06T12:06:31;23.90;72.80
47414;DHT22;33163;0.000;0.000;2022-09-06T12:08:59;23.80;72.70
47414;DHT22;33163;0.000;0.000;2022-09-06T12:11:32;23.90;72.90
47414;DHT22;33163;0.000;0.000;2022-09-06T12:14:02;23.80;72.80
47414;DHT22;33163;0.000;0.000;2022-09-06T12:19:42;23.80;72.70
47414;DHT22;33163;0.000;0.000;2022-09-06T12:22:51;23.80;72.80
47414;DHT22;33163;0.000;0.000;2022-09-06T12:25:51;23.90;72.70
47414;DHT22;33163;0.000;0.000;2022-09-06T12:31:33;23.80;72.80
47414;DHT22;33163;0.000;0.000;2022-09-06T12:34:07;23.80;72.60
47414;DHT22;33163;0.000;0.000;2022-09-06T12:36:34;23.80;72.60
47414;DHT22;33163;0.000;0.000;2022-09-06T12:39:07;23.90;72.60
47414;DHT22;33163;0.000;0.000;2022-09-06T12:41:37;23.90;72.70
47414;DHT22;33163;0.000;0.000;2022-09-06T12:44:05;23.80;72.60
47414;DHT22;33163;0.000;0.000;2022-09-06T12:46:33;23.80;72.60
47414;DHT22;33163;0.000;0.000;2022-09-06T12:49:03;23.80;72.50
47414;DHT22;33163;0.000;0.000;2022-09-06T12:51:31;23.80;72.60
47414;DHT22;33163;0.000;0.000;2022-09-06T12:53:59;23.80;72.60
47414;DHT22;33163;0.000;0.000;2022-09-06T12:56:32;23.80;72.60
47414;DHT22;33163;0.000;0.000;2022-09-06T12:59:10;23.80;72.60
47414;DHT22;33163;0.000;0.000;2022-09-06T13:01:40;23.90;72.60
47414;DHT22;33163;0.000;0.000;2022-09-06T13:04:13;23.80;72.50
47414;DHT22;33163;0.000;0.000;2022-09-06T13:06:44;23.80;72.50
47414;DHT22;33163;0.000;0.000;2022-09-06T13:09:14;23.80;72.50
47414;DHT22;33163;0.000;0.000;2022-09-06T13:11:46;23.80;72.50
47414;DHT22;33163;0.000;0.000;2022-09-06T13:14:18;23.80;72.50
47414;DHT22;33163;0.000;0.000;2022-09-06T13:16:48;23.80;72.60
47414;DHT22;33163;0.000;0.000;2022-09-06T13:19:17;23.80;72.60
47414;DHT22;33163;0.000;0.000;2022-09-06T13:21:45;23.80;73.20
47414;DHT22;33163;0.000;0.000;2022-09-06T13:24:20;23.80;72.50
47414;DHT22;33163;0.000;0.000;2022-09-06T13:26:50;23.80;72.60
47414;DHT22;33163;0.000;0.000;2022-09-06T13:29:21;23.80;73.20
47414;DHT22;33163;0.000;0.000;2022-09-06T13:31:49;23.90;72.60
47414;DHT22;33163;0.000;0.000;2022-09-06T13:34:21;23.80;72.50
47414;DHT22;33163;0.000;0.000;2022-09-06T13:36:50;23.90;72.50
47414;DHT22;33163;0.000;0.000;2022-09-06T13:39:31;23.80;72.50
47414;DHT22;33163;0.000;0.000;2022-09-06T13:42:04;23.90;72.60
47414;DHT22;33163;0.000;0.000;2022-09-06T13:44:33;23.80;72.50
47414;DHT22;33163;0.000;0.000;2022-09-06T13:47:01;23.90;72.50
47414;DHT22;33163;0.000;0.000;2022-09-06T13:49:29;23.90;72.50
47414;DHT22;33163;0.000;0.000;2022-09-06T13:51:58;23.80;72.40
47414;DHT22;33163;0.000;0.000;2022-09-06T13:54:25;23.80;72.50
47414;DHT22;33163;0.000;0.000;2022-09-06T13:56:52;23.90;72.50
47414;DHT22;33163;0.000;0.000;2022-09-06T13:59:22;23.90;72.50
47414;DHT22;33163;0.000;0.000;2022-09-06T14:01:59;23.90;72.50
47414;DHT22;33163;0.000;0.000;2022-09-06T14:04:27;23.80;72.50
47414;DHT22;33163;0.000;0.000;2022-09-06T14:06:54;23.80;72.40
47414;DHT22;33163;0.000;0.000;2022-09-06T14:09:21;23.90;73.10
47414;DHT22;33163;0.000;0.000;2022-09-06T14:11:48;23.90;73.10
47414;DHT22;33163;0.000;0.000;2022-09-06T14:14:15;23.90;72.40
47414;DHT22;33163;0.000;0.000;2022-09-06T14:16:44;23.90;72.50
47414;DHT22;33163;0.000;0.000;2022-09-06T14:19:12;23.90;72.50
47414;DHT22;33163;0.000;0.000;2022-09-06T14:21:39;23.90;72.50
47414;DHT22;33163;0.000;0.000;2022-09-06T14:24:06;23.90;72.50
47414;DHT22;33163;0.000;0.000;2022-09-06T14:26:34;23.90;73.00
47414;DHT22;33163;0.000;0.000;2022-09-06T14:29:02;23.80;72.30
47414;DHT22;33163;0.000;0.000;2022-09-06T14:31:29;23.90;72.40
47414;DHT22;33163;0.000;0.000;2022-09-06T14:33:58;23.90;72.30
47414;DHT22;33163;0.000;0.000;2022-09-06T14:36:27;23.90;73.00
47414;DHT22;33163;0.000;0.000;2022-09-06T14:38:55;23.90;72.40
47414;DHT22;33163;0.000;0.000;2022-09-06T14:41:22;23.90;72.30
47414;DHT22;33163;0.000;0.000;2022-09-06T14:43:51;23.80;72.30
47414;DHT22;33163;0.000;0.000;2022-09-06T14:46:20;23.90;72.40
47414;DHT22;33163;0.000;0.000;2022-09-06T14:48:47;23.80;72.20
47414;DHT22;33163;0.000;0.000;2022-09-06T14:51:18;23.80;72.20
47414;DHT22;33163;0.000;0.000;2022-09-06T14:53:48;23.80;72.20
47414;DHT22;33163;0.000;0.000;2022-09-06T14:56:16;23.80;72.30
47414;DHT22;33163;0.000;0.000;2022-09-06T14:58:43;23.90;72.30
47414;DHT22;33163;0.000;0.000;2022-09-06T15:01:12;23.80;72.20
47414;DHT22;33163;0.000;0.000;2022-09-06T15:03:40;23.90;72.50
47414;DHT22;33163;0.000;0.000;2022-09-06T15:06:08;23.80;72.30
47414;DHT22;33163;0.000;0.000;2022-09-06T15:08:37;23.90;72.30
47414;DHT22;33163;0.000;0.000;2022-09-06T15:11:04;23.90;72.30
47414;DHT22;33163;0.000;0.000;2022-09-06T15:13:32;23.80;72.30
47414;DHT22;33163;0.000;0.000;2022-09-06T15:16:00;23.80;72.40
47414;DHT22;33163;0.000;0.000;2022-09-06T15:18:27;23.80;72.30
47414;DHT22;33163;0.000;0.000;2022-09-06T15:20:57;23.80;72.30
47414;DHT22;33163;0.000;0.000;2022-09-06T15:23:25;23.80;72.50
47414;DHT22;33163;0.000;0.000;2022-09-06T15:25:54;23.80;72.30
47414;DHT22;33163;0.000;0.000;2022-09-06T15:28:20;23.80;72.30
47414;DHT22;33163;0.000;0.000;2022-09-06T15:30:47;23.80;72.30
47414;DHT22;33163;0.000;0.000;2022-09-06T15:33:14;23.80;72.20
47414;DHT22;33163;0.000;0.000;2022-09-06T15:35:41;23.80;72.20
47414;DHT22;33163;0.000;0.000;2022-09-06T15:38:08;23.80;72.40
47414;DHT22;33163;0.000;0.000;2022-09-06T15:40:35;23.80;71.60
47414;DHT22;33163;0.000;0.000;2022-09-06T15:43:04;23.90;71.90
47414;DHT22;33163;0.000;0.000;2022-09-06T15:45:36;23.90;72.10
47414;DHT22;33163;0.000;0.000;2022-09-06T15:48:11;23.80;71.80
47414;DHT22;33163;0.000;0.000;2022-09-06T15:50:39;23.90;72.10
47414;DHT22;33163;0.000;0.000;2022-09-06T15:53:08;23.90;72.00
47414;DHT22;33163;0.000;0.000;2022-09-06T15:55:35;23.80;72.00
47414;DHT22;33163;0.000;0.000;2022-09-06T15:58:20;23.90;72.00
47414;DHT22;33163;0.000;0.000;2022-09-06T16:01:02;23.90;72.20
47414;DHT22;33163;0.000;0.000;2022-09-06T16:03:29;23.90;72.20
47414;DHT22;33163;0.000;0.000;2022-09-06T16:06:00;23.90;72.10
47414;DHT22;33163;0.000;0.000;2022-09-06T16:08:27;23.90;72.00
47414;DHT22;33163;0.000;0.000;2022-09-06T16:10:54;23.90;72.10
47414;DHT22;33163;0.000;0.000;2022-09-06T16:13:23;23.90;72.00